Terminal Aerodrome Forecast
Issued by NWS Cleveland, OH

Home | Current Version | Previous Version | Text Only | Print | Product List | Glossary On
Versions: 1 2 3 4 5 6 7 8 9 10 11 12 13 14 15 16 17 18 19 20 21 22 23 24 25 26
213
FTUS41 KCLE 141455 AAB
TAFCLE
TAF AMD
KCLE 141455Z 1415/1518 15006KT P6SM BKN250
     FM141900 14008KT P6SM BKN100
     FM150400 15010KT 6SM -SN OVC035
     FM150600 14008KT 3SM -SN OVC025=

USA.gov is the U.S. government's official web portal to all federal, state and local government web resources and services.